Flight Track Log - Related Links

Times and Time Zones

All times are in EDT time to prevent confusion due to time zone crossing. See the GJS3627 flight status page for this flight to view local times or setup timezone preferences in your user account.

Time Position Orientation Groundspeed Altitude Reporting Facility
EDT Latitude Longitude Course Direction KTS MPH feet Rate Location/Type
Tue 11:16:48 AM 41.9500 -87.9833 254° West 177 204 2,800  Level Chicago TRACON
Tue 11:17:42 AM 41.9333 -88.0500 251° West 234 269 4,600 2,323 Climbing Chicago TRACON
Tue 11:18:52 AM 41.9139 -88.1447 255° West 255 293 7,600 2,473 Climbing Chicago Center
Tue 11:19:00 AM 41.8777 -88.3307 242° Southwest  Level FlightAware Approximate
Tue 11:19:53 AM 41.9150 -88.2431 271° West 267 307 10,000  Level Chicago Center
Tue 11:20:00 AM 41.8433 -88.4336 255° West  Level FlightAware Approximate
Tue 11:20:55 AM 41.9042 -88.3544 263° West 301 346 12,000  Level Chicago Center
Tue 11:21:00 AM 41.8203 -88.5427 254° West  Level FlightAware Approximate
Tue 11:21:57 AM 41.8708 -88.4856 251° West 311 358 14,400  Level Chicago Center
Tue 11:22:00 AM 41.7932 -88.6649 254° West  Level FlightAware Approximate
Tue 11:22:59 AM 41.8419 -88.5989 251° West 319 367 16,500  Level Chicago Center
Tue 11:24:00 AM 41.8133 -88.7153 252° West 329 379 18,400 1,902 Climbing Chicago Center
Tue 11:25:02 AM 41.7844 -88.8311 252° West 332 382 20,400 1,839 Climbing Chicago Center
Tue 11:26:04 AM 41.7556 -88.9475 252° West 333 383 22,200 1,805 Climbing Chicago Center
Tue 11:27:05 AM 41.7222 -89.0872 252° West 331 381 24,100 1,366 Climbing Chicago Center
Tue 11:28:07 AM 41.6922 -89.2061 251° West 338 389 25,000 919 Climbing Chicago Center
Tue 11:29:09 AM 41.6608 -89.3300 251° West 349 402 26,000 968 Climbing Chicago Center
Tue 11:30:11 AM 41.6289 -89.4558 251° West 358 412 27,000 1,024 Climbing Chicago Center
Tue 11:31:12 AM 41.5950 -89.5911 252° West 364 419 28,100 1,024 Climbing Chicago Center
Tue 11:32:14 AM 41.5628 -89.7186 251° West 364 419 29,100 1,016 Climbing Chicago Center
Tue 11:33:16 AM 41.5308 -89.8472 252° West 365 420 30,200 1,113 Climbing Chicago Center
Tue 11:34:18 AM 41.4778 -89.9600 238° Southwest 363 418 31,400 1,317 Climbing Chicago Center
Tue 11:35:19 AM 41.4139 -90.0914 237° Southwest 355 409 32,900 1,268 Climbing Chicago Center
Tue 11:36:21 AM 41.3606 -90.1997 237° Southwest 352 405 34,000 532 Climbing Chicago Center
Tue 11:37:23 AM 41.3081 -90.3086 237° Southwest 351 404 34,000  Level Chicago Center
Tue 11:38:25 AM 41.2508 -90.4236 237° Southwest 373 429 34,000  Level Chicago Center
Tue 11:39:26 AM 41.1936 -90.5389 237° Southwest 374 430 34,000 244 Level Chicago Center
Tue 11:40:28 AM 41.1369 -90.6517 236° Southwest 370 426 34,500 726 Climbing Chicago Center
Tue 11:41:30 AM 41.0817 -90.7642 237° Southwest 365 420 35,500 726 Climbing Chicago Center
Tue 11:42:32 AM 41.0153 -90.8947 236° Southwest 358 412 36,000 244 Climbing Chicago Center
Tue 11:43:33 AM 40.9592 -91.0044 236° Southwest 360 414 36,000  Level Chicago Center
Tue 11:44:35 AM 40.9047 -91.1119 236° Southwest 354 407 36,000  Level Chicago Center
Tue 11:45:37 AM 40.8514 -91.2192 237° Southwest 351 404 36,000  Level Chicago Center
Tue 11:46:39 AM 40.7906 -91.3375 236° Southwest 354 407 36,000  Level Chicago Center
Tue 11:47:40 AM 40.7369 -91.4428 236° Southwest 350 403 36,000  Level Chicago Center
Tue 11:48:42 AM 40.6822 -91.5478 236° Southwest 350 403 36,000  Level Chicago Center
Tue 11:49:44 AM 40.6275 -91.6522 235° Southwest 350 403 36,000  Level Chicago Center
Tue 11:50:29 AM 40.5856 -91.7361 237° Southwest 347 399 36,000  Level Kansas City Center
Tue 11:51:33 AM 40.5303 -91.8406 235° Southwest 348 400 36,000  Level Kansas City Center
Tue 11:52:33 AM 40.4756 -91.9453 236° Southwest 349 402 36,000  Level Kansas City Center
Tue 11:53:35 AM 40.4217 -92.0492 236° Southwest 347 399 36,000  Level Kansas City Center
Tue 11:54:36 AM 40.3561 -92.1744 236° Southwest 348 400 36,000  Level Kansas City Center
Tue 11:55:40 AM 40.3006 -92.2803 235° Southwest 351 404 36,000  Level Kansas City Center
Tue 11:56:41 AM 40.2481 -92.3789 235° Southwest 350 403 36,000  Level Kansas City Center
Tue 11:57:41 AM 40.1858 -92.4978 236° Southwest 353 406 36,000  Level Kansas City Center
Tue 11:58:45 AM 40.1331 -92.5994 236° Southwest 352 405 36,000 -194 Level Kansas City Center
Tue 11:59:45 AM 40.0828 -92.7272 243° Southwest 354 407 35,600 -726 Descending Kansas City Center
Tue 12:00:49 PM 40.0422 -92.8331 243° Southwest 360 414 34,500 -1,452 Descending Kansas City Center
Tue 12:01:49 PM 39.9950 -92.9517 243° Southwest 367 422 32,600 -1,884 Descending Kansas City Center
Tue 12:02:50 PM 39.9494 -93.0689 243° Southwest 366 421 30,700 -2,049 Descending Kansas City Center
Tue 12:03:52 PM 39.8917 -93.2128 242° Southwest 373 429 28,400 -2,016 Descending Kansas City Center
Tue 12:04:55 PM 39.8450 -93.3342 243° Southwest 376 433 26,500 -1,839 Descending Kansas City Center
Tue 12:05:56 PM 39.7997 -93.4500 243° Southwest 367 422 24,600 -1,854 Descending Kansas City Center
Tue 12:06:58 PM 39.7547 -93.5622 242° Southwest 359 413 22,700 -1,869 Descending Kansas City Center
Tue 12:07:58 PM 39.7125 -93.6686 243° Southwest 339 390 20,800 -1,839 Descending Kansas City Center
Tue 12:09:02 PM 39.6697 -93.7756 243° Southwest 324 373 18,900 -1,887 Descending Kansas City Center
Tue 12:10:02 PM 39.6253 -93.8858 242° Southwest 308 354 16,900 -1,854 Descending Kansas City Center
Tue 12:11:05 PM 39.5811 -93.9733 237° Southwest 303 349 15,100 -1,887 Descending Kansas City Center
Tue 12:12:06 PM 39.5286 -94.0783 237° Southwest 310 357 13,000 -1,512 Descending Kansas City Center
Tue 12:13:08 PM 39.4836 -94.1661 236° Southwest 307 353 12,000 -488 Descending Kansas City Center
Tue 12:14:09 PM 39.4414 -94.2517 237° Southwest 296 341 12,000  Level Kansas City Center
Tue 12:15:10 PM 39.3903 -94.3503 236° Southwest 296 341 12,000  Level Kansas City Center
Tue 12:16:11 PM 39.3478 -94.4342 237° Southwest 291 335 12,000 -492 Level Kansas City Center
Tue 12:17:12 PM 39.3033 -94.5225 237° Southwest 262 302 11,000 -919 Descending Kansas City Center
Tue 12:18:15 PM 39.2719 -94.5844 237° Southwest 218 251 10,100 -952 Descending Kansas City Center
Tue 12:19:18 PM 39.2094 -94.6144 200° South 221 254 9,000 -1,065 Descending Kansas City Center
Tue 12:20:19 PM 39.1500 -94.6286 190° South 226 260 7,900 -1,463 Descending Kansas City Center
Tue 12:21:21 PM 39.0981 -94.6611 206° Southwest 233 268 6,000 -1,870 Descending Kansas City Center
Tue 12:22:53 PM 39.1167 -94.7833 281° West 193 222 3,100 -1,475 Descending Kansas City TRACON
Tue 12:23:23 PM 39.1383 -94.7758 15° North 186 214 3,000 -66 Descending Kansas City Center
Tue 12:24:24 PM 39.1936 -94.7583 14° North 183 211 3,000  Level Kansas City Center

Login

Don't have an account? Register now (free) for customized features, flight alerts, and more!